Aviation Digital Data Service (ADDS)

Output produced by METARs form (0010 UTC 23 March 2019)
found at http://www.aviationweather.gov/metar/data/
 
METAR text: PTSA 222350Z 01007KT 10SM FEW023 SCT130 BKN300 31/24 A2985
Conditions at: PTSA (KOSRAE ISLAND , FM) observed 2350 UTC 22 March 2019
Temperature: 31.0°C (88°F)
Dewpoint: 24.0°C (75°F) [RH = 66%]
Pressure (altimeter): 29.85 inches Hg (1010.9 mb)
Winds: from the N (10 degrees) at 8 MPH (7 knots; 3.6 m/s)
Visibility: 10 or more miles (16+ km)
Ceiling: 30000 feet AGL
Clouds: few clouds at 2300 feet AGL
scattered clouds at 13000 feet AGL
broken clouds at 30000 feet AGL
Weather: no significant weather observed at this time

METAR text: PTSA 222250Z VRB03KT 10SM FEW022 BKN130 BKN300 30/24 A2984
Conditions at: PTSA (KOSRAE ISLAND , FM) observed 2250 UTC 22 March 2019
Temperature: 30.0°C (86°F)
Dewpoint: 24.0°C (75°F) [RH = 70%]
Pressure (altimeter): 29.84 inches Hg (1010.6 mb)
Winds: variable direction winds at 3 MPH (3 knots; 1.5 m/s)
Visibility: 10 or more miles (16+ km)
Ceiling: 13000 feet AGL
Clouds: few clouds at 2200 feet AGL
broken clouds at 13000 feet AGL
broken clouds at 30000 feet AGL
Weather: no significant weather observed at this time

METAR text: PTSA 222150Z 13003KT 10SM FEW021 BKN130 OVC300 30/25 A2983 RMK FIRST
Conditions at: PTSA (KOSRAE ISLAND , FM) observed 2150 UTC 22 March 2019
Temperature: 30.0°C (86°F)
Dewpoint: 25.0°C (77°F) [RH = 75%]
Pressure (altimeter): 29.83 inches Hg (1010.2 mb)
Winds: from the SE (130 degrees) at 3 MPH (3 knots; 1.5 m/s)
Visibility: 10 or more miles (16+ km)
Ceiling: 13000 feet AGL
Clouds: few clouds at 2100 feet AGL
broken clouds at 13000 feet AGL
overcast cloud deck at 30000 feet AGL
Weather: no significant weather observed at this time

METAR text: PTSA 220755Z VRB03KT 10SM SCT020 SCT130 BKN300 30/26 A2979 RMK LAST
Conditions at: PTSA (KOSRAE ISLAND , FM) observed 0755 UTC 22 March 2019
Temperature: 30.0°C (86°F)
Dewpoint: 26.0°C (79°F) [RH = 79%]
Pressure (altimeter): 29.79 inches Hg (1008.9 mb)
Winds: variable direction winds at 3 MPH (3 knots; 1.5 m/s)
Visibility: 10 or more miles (16+ km)
Ceiling: 30000 feet AGL
Clouds: scattered clouds at 2000 feet AGL
scattered clouds at 13000 feet AGL
broken clouds at 30000 feet AGL
Weather: no significant weather observed at this time

METAR text: PTSA 220550Z 11009KT 10SM SCT020 SCT130 BKN300 30/26 A2977
Conditions at: PTSA (KOSRAE ISLAND , FM) observed 0550 UTC 22 March 2019
Temperature: 30.0°C (86°F)
Dewpoint: 26.0°C (79°F) [RH = 79%]
Pressure (altimeter): 29.77 inches Hg (1008.2 mb)
Winds: from the ESE (110 degrees) at 10 MPH (9 knots; 4.6 m/s)
Visibility: 10 or more miles (16+ km)
Ceiling: 30000 feet AGL
Clouds: scattered clouds at 2000 feet AGL
scattered clouds at 13000 feet AGL
broken clouds at 30000 feet AGL
Weather: no significant weather observed at this time

METAR text: PTSA 220450Z 10010KT 10SM SCT021 SCT130 BKN300 31/25 A2975
Conditions at: PTSA (KOSRAE ISLAND , FM) observed 0450 UTC 22 March 2019
Temperature: 31.0°C (88°F)
Dewpoint: 25.0°C (77°F) [RH = 71%]
Pressure (altimeter): 29.75 inches Hg (1007.5 mb)
Winds: from the E (100 degrees) at 12 MPH (10 knots; 5.1 m/s)
Visibility: 10 or more miles (16+ km)
Ceiling: 30000 feet AGL
Clouds: scattered clouds at 2100 feet AGL
scattered clouds at 13000 feet AGL
broken clouds at 30000 feet AGL
Weather: no significant weather observed at this time

METAR text: PTSA 220350Z 05014KT 10SM SCT021 SCT130 BKN300 31/26 A2975
Conditions at: PTSA (KOSRAE ISLAND , FM) observed 0350 UTC 22 March 2019
Temperature: 31.0°C (88°F)
Dewpoint: 26.0°C (79°F) [RH = 75%]
Pressure (altimeter): 29.75 inches Hg (1007.5 mb)
Winds: from the NE (50 degrees) at 16 MPH (14 knots; 7.2 m/s)
Visibility: 10 or more miles (16+ km)
Ceiling: 30000 feet AGL
Clouds: scattered clouds at 2100 feet AGL
scattered clouds at 13000 feet AGL
broken clouds at 30000 feet AGL
Weather: no significant weather observed at this time

METAR text: PTSA 220250Z 05015KT 10SM SCT021TCU BKN130 BKN300 31/25 A2977 RMK TCU SE AND SW
Conditions at: PTSA (KOSRAE ISLAND , FM) observed 0250 UTC 22 March 2019
Temperature: 31.0°C (88°F)
Dewpoint: 25.0°C (77°F) [RH = 71%]
Pressure (altimeter): 29.77 inches Hg (1008.2 mb)
Winds: from the NE (50 degrees) at 17 MPH (15 knots; 7.7 m/s)
Visibility: 10 or more miles (16+ km)
Ceiling: 13000 feet AGL
Clouds: scattered clouds at 2100 feet AGL
broken clouds at 13000 feet AGL
broken clouds at 30000 feet AGL
Weather: no significant weather observed at this time

METAR text: PTSA 220150Z 06014KT 10SM BKN016TCU BKN130 BKN300 31/26 A2979 RMK TCU NE-SE
Conditions at: PTSA (KOSRAE ISLAND , FM) observed 0150 UTC 22 March 2019
Temperature: 31.0°C (88°F)
Dewpoint: 26.0°C (79°F) [RH = 75%]
Pressure (altimeter): 29.79 inches Hg (1008.9 mb)
Winds: from the ENE (60 degrees) at 16 MPH (14 knots; 7.2 m/s)
Visibility: 10 or more miles (16+ km)
Ceiling: 1600 feet AGL
Clouds: broken clouds at 1600 feet AGL
broken clouds at 13000 feet AGL
broken clouds at 30000 feet AGL
Weather: no significant weather observed at this time

METAR text: PTSA 220055Z 09012KT 10SM SCT021TCU BKN130 BKN300 32/26 A2981 RMK TCU SE-SW
Conditions at: PTSA (KOSRAE ISLAND , FM) observed 0055 UTC 22 March 2019
Temperature: 32.0°C (90°F)
Dewpoint: 26.0°C (79°F) [RH = 71%]
Pressure (altimeter): 29.81 inches Hg (1009.6 mb)
Winds: from the E (90 degrees) at 14 MPH (12 knots; 6.2 m/s)
Visibility: 10 or more miles (16+ km)
Ceiling: 13000 feet AGL
Clouds: scattered clouds at 2100 feet AGL
broken clouds at 13000 feet AGL
broken clouds at 30000 feet AGL
Weather: no significant weather observed at this time

METAR text: PTSA 212350Z 10009KT 10SM BKN020TCU BKN130 BKN300 31/25 A2984 RMK TCU E-SE
Conditions at: PTSA (KOSRAE ISLAND , FM) observed 2350 UTC 21 March 2019
Temperature: 31.0°C (88°F)
Dewpoint: 25.0°C (77°F) [RH = 71%]
Pressure (altimeter): 29.84 inches Hg (1010.6 mb)
Winds: from the E (100 degrees) at 10 MPH (9 knots; 4.6 m/s)
Visibility: 10 or more miles (16+ km)
Ceiling: 2000 feet AGL
Clouds: broken clouds at 2000 feet AGL
broken clouds at 13000 feet AGL
broken clouds at 30000 feet AGL
Weather: no significant weather observed at this time

METAR text: PTSA 212255Z 12004KT 10SM VCSH SCT019 BKN130 BKN300 29/26 A2985 RMK VCSH E
Conditions at: PTSA (KOSRAE ISLAND , FM) observed 2255 UTC 21 March 2019
Temperature: 29.0°C (84°F)
Dewpoint: 26.0°C (79°F) [RH = 84%]
Pressure (altimeter): 29.85 inches Hg (1010.9 mb)
Winds: from the ESE (120 degrees) at 5 MPH (4 knots; 2.1 m/s)
Visibility: 10 or more miles (16+ km)
Ceiling: 13000 feet AGL
Clouds: scattered clouds at 1900 feet AGL
broken clouds at 13000 feet AGL
broken clouds at 30000 feet AGL
Weather: VCSH  (showers in vicinity)

METAR text: PTSA 212155Z 12006KT 10SM SCT019 BKN130 BKN300 29/26 A2986 RMK FIRST
Conditions at: PTSA (KOSRAE ISLAND , FM) observed 2155 UTC 21 March 2019
Temperature: 29.0°C (84°F)
Dewpoint: 26.0°C (79°F) [RH = 84%]
Pressure (altimeter): 29.86 inches Hg (1011.3 mb)
Winds: from the ESE (120 degrees) at 7 MPH (6 knots; 3.1 m/s)
Visibility: 10 or more miles (16+ km)
Ceiling: 13000 feet AGL
Clouds: scattered clouds at 1900 feet AGL
broken clouds at 13000 feet AGL
broken clouds at 30000 feet AGL
Weather: no significant weather observed at this time

Forecast for: PTSA (KOSRAE ISLAND , FM)
Text: PTSA 222337Z 2300/2324 09009KT P6SM FEW022 FEW130
Forecast period: 0000 UTC 23 March 2019 to 0000 UTC 24 March 2019
Forecast type: FROM: standard forecast or significant change
Winds: from the E (90 degrees) at 10 MPH (9 knots; 4.6 m/s)
Visibility: 6 or more miles 10+ km)
Ceiling: at least 12,000 feet AGL
Clouds: few clouds at 2200 feet AGL
few clouds at 13000 feet AGL
Weather: no significant weather forecast for this period